YBIA weather

Bingara Airport
New South Wales, Australia

Public forecast

Using degrees Celsius for public forecast. Weather courtesy of forecast.io.

METAR (pilot weather report)

Closest report is Moree Airport, 40.2 nm (74.4 km) WNW. Retrieved 2019/06/17 09:00 UTC (60 minutes ago):

YMOR 170900Z AUTO 19007KT 9999 // NCD 12/03 Q1019

TAF (pilot weather forecast)

Closest forecast is Tamworth Airport, 78.8 nm (145.9 km) SSE. Retrieved 2019/06/17 06:36 UTC (3 hours ago):

TAF YSTW 170457Z 1706/1724 21007KT 9999 SCT040 FM171400 22003KT 9999 SCT010 BKN020